Time;durP1;ratioP1;P1;durP2;ratioP2;P2;SDS_P1;SDS_P2;PMS_P1;PMS_P2;Temp;Humidity;BMP_temperature;BMP_pressure;BME280_temperature;BME280_humidity;BME280_pressure;Samples;Min_cycle;Max_cycle;Signal;HPM_P1;HPM_P2
2022/04/12 00:00:31;;;;;;;5.72;2.70;;;;;;;4.33;100.00;101365.06;6223111;28;20065;-69
2022/04/12 00:03:32;;;;;;;5.57;2.70;;;;;;;4.30;100.00;101357.31;6223176;28;20512;-70
2022/04/12 00:06:34;;;;;;;8.15;3.88;;;;;;;4.31;100.00;101351.22;6223868;28;20089;-70
2022/04/12 00:09:35;;;;;;;5.00;2.83;;;;;;;4.31;100.00;101346.91;6223733;28;20073;-69
2022/04/12 00:12:37;;;;;;;9.88;3.28;;;;;;;4.25;100.00;101340.94;6223050;28;20057;-70
2022/04/12 00:15:40;;;;;;;11.70;3.72;;;;;;;4.24;100.00;101331.41;6223811;28;20064;-70
2022/04/12 00:22:00;;;;;;;6.07;3.40;;;;;;;4.21;100.00;101331.47;6222848;28;20085;-71
2022/04/12 00:25:01;;;;;;;6.95;2.83;;;;;;;4.21;100.00;101332.31;6223339;28;20391;-72
2022/04/12 00:28:03;;;;;;;5.93;2.75;;;;;;;4.18;100.00;101335.00;6223539;28;20046;-72
2022/04/12 00:31:06;;;;;;;5.43;3.17;;;;;;;4.15;100.00;101332.44;6222710;28;20050;-71
2022/04/12 00:34:07;;;;;;;5.55;2.60;;;;;;;4.14;100.00;101335.06;6223146;28;20436;-72
2022/04/12 00:37:08;;;;;;;7.10;3.30;;;;;;;4.09;100.00;101332.56;6223205;28;20057;-71
2022/04/12 00:40:10;;;;;;;9.20;3.80;;;;;;;4.10;100.00;101321.25;6222601;28;20390;-71
2022/04/12 00:43:12;;;;;;;6.88;3.28;;;;;;;4.08;100.00;101310.84;6222466;28;20045;-71
2022/04/12 00:46:15;;;;;;;8.98;3.33;;;;;;;4.06;100.00;101315.25;6222887;28;20064;-72
2022/04/12 00:49:16;;;;;;;5.70;3.22;;;;;;;4.04;100.00;101314.44;6222974;28;20046;-72
2022/04/12 00:52:18;;;;;;;5.35;3.05;;;;;;;4.01;100.00;101306.66;6222072;28;20528;-72
2022/04/12 00:55:21;;;;;;;5.10;2.85;;;;;;;4.03;100.00;101314.44;6222994;28;20512;-71
2022/04/12 00:58:23;;;;;;;7.93;3.35;;;;;;;4.05;100.00;101308.34;6222097;28;20075;-71
2022/04/12 01:01:26;;;;;;;8.52;3.05;;;;;;;4.07;100.00;101308.28;6219406;28;20061;-72
2022/04/12 01:04:28;;;;;;;4.47;2.40;;;;;;;4.07;100.00;101301.34;6222452;28;20054;-72
2022/04/12 01:07:31;;;;;;;3.92;2.47;;;;;;;4.07;100.00;101303.09;6222384;28;20049;-71
2022/04/12 01:10:33;;;;;;;6.65;3.05;;;;;;;4.04;100.00;101301.44;6221786;28;20490;-72
2022/04/12 01:13:35;;;;;;;5.88;3.08;;;;;;;4.04;100.00;101288.41;6222021;28;20053;-71
2022/04/12 01:16:37;;;;;;;9.40;3.70;;;;;;;4.06;100.00;101284.03;6222598;28;20497;-72
2022/04/12 01:19:39;;;;;;;8.90;3.55;;;;;;;4.08;100.00;101290.06;6222003;28;20057;-71
2022/04/12 01:22:45;;;;;;;4.47;2.58;;;;;;;4.05;100.00;101284.06;6221976;28;20057;-71
2022/04/12 01:25:48;;;;;;;5.35;3.15;;;;;;;4.01;100.00;101283.25;6222082;28;20053;-73
2022/04/12 01:28:49;;;;;;;6.18;3.63;;;;;;;3.98;100.00;101275.50;6222265;28;20042;-71
2022/04/12 01:31:50;;;;;;;7.63;3.75;;;;;;;3.97;100.00;101279.00;6221527;28;20501;-73
2022/04/12 01:34:52;;;;;;;9.65;3.15;;;;;;;3.95;100.00;101278.19;6222339;28;20050;-72
2022/04/12 01:37:53;;;;;;;6.28;3.35;;;;;;;3.95;100.00;101279.91;6220358;28;20058;-72
2022/04/12 01:40:56;;;;;;;3.80;2.47;;;;;;;4.00;100.00;101278.94;6221354;28;20521;-71
2022/04/12 01:43:57;;;;;;;6.32;3.47;;;;;;;4.01;100.00;101275.47;6221953;28;20054;-71
2022/04/12 01:46:59;;;;;;;6.90;3.47;;;;;;;4.00;100.00;101280.69;6222074;28;20050;-73
2022/04/12 01:50:00;;;;;;;5.57;3.15;;;;;;;4.00;100.00;101276.34;6221627;28;20449;-71
2022/04/12 01:53:01;;;;;;;5.65;2.70;;;;;;;4.01;100.00;101278.06;6221397;28;20053;-72
2022/04/12 01:56:05;;;;;;;6.88;3.35;;;;;;;4.00;100.00;101276.34;6221947;28;20046;-71
2022/04/12 01:59:06;;;;;;;5.25;2.75;;;;;;;3.96;100.00;101266.88;6221478;28;20053;-72
2022/04/12 02:02:08;;;;;;;7.30;3.38;;;;;;;4.06;100.00;101260.63;6221197;28;20056;-72
2022/04/12 02:05:09;;;;;;;5.85;2.72;;;;;;;4.08;100.00;101255.38;6222067;28;20061;-71
2022/04/12 02:08:11;;;;;;;5.07;2.42;;;;;;;4.09;100.00;101251.94;6221661;28;20046;-71
2022/04/12 02:11:13;;;;;;;8.15;3.65;;;;;;;4.11;100.00;101249.28;6221030;28;20061;-71
2022/04/12 02:14:15;;;;;;;5.78;2.83;;;;;;;4.15;100.00;101249.19;6221831;28;20076;-71
2022/04/12 02:17:17;;;;;;;8.50;4.18;;;;;;;4.14;100.00;101249.25;6221620;28;20425;-71
2022/04/12 02:20:18;;;;;;;6.82;4.07;;;;;;;4.13;100.00;101243.16;6221000;28;20064;-71
2022/04/12 02:23:19;;;;;;;9.10;3.53;;;;;;;4.13;100.00;101240.56;6221576;28;20513;-71
2022/04/12 02:26:22;;;;;;;6.45;3.10;;;;;;;4.15;100.00;101249.19;6214585;28;20050;-72
2022/04/12 02:29:23;;;;;;;5.28;2.95;;;;;;;4.11;100.00;101249.28;6226087;28;20520;-71
2022/04/12 02:32:25;;;;;;;6.47;3.60;;;;;;;4.09;100.00;101246.72;6225391;28;20061;-72
2022/04/12 02:35:26;;;;;;;7.00;3.15;;;;;;;4.06;100.00;101252.81;6225990;28;20129;-71
2022/04/12 02:38:27;;;;;;;10.35;3.53;;;;;;;4.08;100.00;101258.00;6225736;28;20165;-72
2022/04/12 02:41:30;;;;;;;7.63;3.47;;;;;;;4.06;100.00;101252.81;6225221;28;20497;-72
2022/04/12 02:44:31;;;;;;;7.55;3.65;;;;;;;4.00;100.00;101250.34;6225768;28;20057;-70
2022/04/12 02:47:33;;;;;;;8.35;3.42;;;;;;;3.92;100.00;101259.16;6225068;28;20501;-71
2022/04/12 02:50:34;;;;;;;7.22;3.60;;;;;;;3.88;100.00;101253.16;6224705;28;20046;-72
2022/04/12 02:53:35;;;;;;;5.05;3.00;;;;;;;3.88;99.78;101255.75;6225490;28;20441;-72
2022/04/12 02:56:38;;;;;;;5.43;2.70;;;;;;;3.89;99.98;101259.22;6225295;28;20053;-71
2022/04/12 02:59:39;;;;;;;7.40;3.17;;;;;;;3.95;100.00;101251.28;6224059;28;20046;-72
2022/04/12 03:02:40;;;;;;;5.53;3.15;;;;;;;4.03;100.00;101252.03;6225009;28;20053;-71
2022/04/12 03:05:42;;;;;;;9.00;3.90;;;;;;;4.03;99.27;101258.06;6225173;28;20045;-72
2022/04/12 03:08:43;;;;;;;9.52;3.15;;;;;;;4.05;99.11;101258.06;6225221;28;20054;-73
2022/04/12 03:11:46;;;;;;;6.07;3.00;;;;;;;4.07;99.18;101257.13;6224439;28;20046;-71
2022/04/12 03:14:47;;;;;;;5.78;3.03;;;;;;;4.11;96.92;101255.34;6225410;28;20050;-72
2022/04/12 03:17:49;;;;;;;6.38;3.42;;;;;;;4.09;97.59;101262.34;6224900;28;20050;-71
2022/04/12 03:20:51;;;;;;;6.45;3.10;;;;;;;4.08;96.68;101264.03;6224349;28;20054;-72
2022/04/12 03:23:52;;;;;;;10.23;3.60;;;;;;;4.11;97.88;101257.09;6224748;28;20054;-71
2022/04/12 03:26:55;;;;;;;5.18;2.97;;;;;;;4.13;99.24;101261.34;6224672;28;20053;-72
2022/04/12 03:29:57;;;;;;;8.07;3.28;;;;;;;4.17;99.65;101251.75;6224608;28;20759;-72
2022/04/12 03:32:58;;;;;;;8.40;3.42;;;;;;;4.18;100.00;101250.88;6224040;28;20416;-72
2022/04/12 03:35:59;;;;;;;6.15;2.83;;;;;;;4.18;100.00;101248.28;6224658;28;20433;-71
2022/04/12 03:39:04;;;;;;;5.45;3.45;;;;;;;4.16;99.54;101250.91;6223030;28;20057;-71
2022/04/12 03:42:11;;;;;;;8.80;3.67;;;;;;;4.20;97.81;101249.13;6224254;28;20054;-71
2022/04/12 03:45:12;;;;;;;5.90;3.70;;;;;;;4.23;98.35;101236.91;6224321;28;20515;-72
2022/04/12 03:48:13;;;;;;;3.92;2.63;;;;;;;4.23;96.52;101228.25;6224205;28;20049;-71
2022/04/12 03:51:15;;;;;;;6.70;3.13;;;;;;;4.22;96.58;101231.72;6223829;28;20054;-71
2022/04/12 03:54:16;;;;;;;6.32;3.35;;;;;;;4.21;96.21;101235.22;6224774;28;20053;-72
2022/04/12 03:57:19;;;;;;;8.57;3.78;;;;;;;4.19;96.79;101240.47;6224454;28;20046;-72
2022/04/12 04:00:20;;;;;;;6.53;3.53;;;;;;;4.22;94.37;101247.31;6223217;28;20053;-71
2022/04/12 04:03:21;;;;;;;7.50;3.53;;;;;;;4.16;96.48;101245.72;6224152;28;20145;-72
2022/04/12 04:06:23;;;;;;;5.22;2.80;;;;;;;4.11;97.76;101244.94;6223853;28;20057;-71
2022/04/12 04:09:24;;;;;;;5.43;3.40;;;;;;;4.10;97.90;101247.59;6223938;28;20050;-71
2022/04/12 04:12:28;;;;;;;6.93;3.10;;;;;;;4.06;97.73;101250.22;6223110;28;20520;-71
2022/04/12 04:15:31;;;;;;;7.35;2.40;;;;;;;4.06;97.96;101254.56;6223967;28;20081;-72
2022/04/12 04:18:33;;;;;;;7.85;3.13;;;;;;;4.02;97.09;101248.56;6223380;28;20512;-71
2022/04/12 04:21:34;;;;;;;8.27;4.22;;;;;;;4.03;97.09;101246.81;6223066;28;20045;-71
2022/04/12 04:24:35;;;;;;;4.72;2.50;;;;;;;4.03;97.04;101250.28;6223588;28;20046;-72
2022/04/12 04:27:39;;;;;;;5.68;3.00;;;;;;;4.02;96.46;101255.50;6223678;28;20057;-70
2022/04/12 04:30:44;;;;;;;4.28;2.38;;;;;;;4.01;96.81;101265.06;6222599;28;20054;-70
2022/04/12 04:33:45;;;;;;;7.93;3.10;;;;;;;3.99;96.66;101259.00;6223364;28;20714;-69
2022/04/12 04:36:46;;;;;;;5.88;3.50;;;;;;;4.03;95.26;101265.03;6223288;28;20049;-69
2022/04/12 04:39:48;;;;;;;6.55;3.08;;;;;;;3.99;95.73;101259.00;6222459;28;20053;-69
2022/04/12 04:42:52;;;;;;;4.65;2.58;;;;;;;3.96;96.69;101255.63;6222869;28;20049;-69
2022/04/12 04:45:53;;;;;;;8.45;3.40;;;;;;;3.92;98.81;101257.44;6222837;28;20057;-69
2022/04/12 04:48:55;;;;;;;6.22;3.28;;;;;;;3.92;98.59;101262.63;6222535;28;20494;-69
2022/04/12 04:51:56;;;;;;;5.72;3.35;;;;;;;3.84;98.07;101251.50;6222220;28;20061;-68
2022/04/12 04:54:57;;;;;;;4.97;2.60;;;;;;;3.80;98.27;101255.03;6223048;28;20183;-68
2022/04/12 04:58:00;;;;;;;8.25;2.60;;;;;;;3.83;98.67;101256.72;6222337;28;20518;-69
2022/04/12 05:01:01;;;;;;;7.93;3.50;;;;;;;3.84;96.85;101248.91;6221787;28;20042;-70
2022/04/12 05:04:03;;;;;;;6.07;3.13;;;;;;;3.87;97.74;101251.44;6222628;28;20053;-69
2022/04/12 05:07:05;;;;;;;8.60;4.50;;;;;;;3.88;96.69;101244.50;6222710;28;20057;-70
2022/04/12 05:10:07;;;;;;;7.40;3.13;;;;;;;3.90;97.22;101245.31;6222148;28;20508;-69
2022/04/12 05:13:10;;;;;;;6.72;2.97;;;;;;;3.92;97.28;101234.03;6221892;28;20053;-67
2022/04/12 05:16:11;;;;;;;6.13;2.88;;;;;;;3.95;96.97;101243.50;6222440;28;20054;-69
2022/04/12 05:19:13;;;;;;;6.55;3.28;;;;;;;4.00;97.30;101232.16;6222391;28;20064;-68
2022/04/12 05:22:14;;;;;;;5.57;3.00;;;;;;;4.01;96.49;101235.59;6221720;28;20050;-69
2022/04/12 05:25:16;;;;;;;4.30;2.63;;;;;;;4.06;95.90;101233.78;6220507;28;20065;-69
2022/04/12 05:28:18;;;;;;;9.90;3.25;;;;;;;4.13;96.22;101235.34;6220190;28;20050;-69
2022/04/12 05:31:20;;;;;;;6.78;3.53;;;;;;;4.33;93.54;101237.59;6218018;28;20050;-69
2022/04/12 05:34:21;;;;;;;5.10;2.88;;;;;;;4.32;93.26;101238.47;6218806;28;20125;-69
2022/04/12 05:37:22;;;;;;;7.75;3.25;;;;;;;4.36;93.00;101234.94;6218895;28;20053;-69
2022/04/12 05:40:24;;;;;;;6.38;3.00;;;;;;;4.45;92.69;101239.06;6218575;28;20387;-69
2022/04/12 05:43:27;;;;;;;4.97;2.38;;;;;;;4.53;91.17;101234.56;6220118;28;20237;-69
2022/04/12 05:46:28;;;;;;;6.32;3.13;;;;;;;4.59;91.22;101226.66;6221332;28;20512;-69
2022/04/12 05:49:29;;;;;;;5.72;2.58;;;;;;;4.65;89.96;101218.72;6221878;28;20057;-70
2022/04/12 05:52:32;;;;;;;5.28;2.60;;;;;;;4.71;88.45;101215.97;6221296;28;20042;-69
2022/04/12 05:55:34;;;;;;;4.10;2.40;;;;;;;4.82;88.64;101221.81;6221965;28;20061;-68
2022/04/12 05:58:40;;;;;;;11.45;2.95;;;;;;;4.87;88.19;101219.09;6221889;28;20080;-70
2022/04/12 06:01:41;;;;;;;4.60;2.85;;;;;;;5.00;87.35;101227.50;6223102;28;20135;-69
2022/04/12 06:04:43;;;;;;;4.72;3.13;;;;;;;5.05;86.97;101229.09;6226598;28;20054;-69
2022/04/12 06:07:45;;;;;;;4.30;2.38;;;;;;;5.12;87.90;101227.22;6226642;28;20054;-69
2022/04/12 06:10:47;;;;;;;3.70;2.40;;;;;;;5.17;86.54;101225.34;6225739;28;20050;-69
2022/04/12 06:13:49;;;;;;;5.90;2.97;;;;;;;5.45;85.04;101235.13;6226868;28;20497;-69
2022/04/12 06:16:50;;;;;;;5.38;2.70;;;;;;;5.38;85.79;101236.16;6226489;28;20050;-69
2022/04/12 06:19:52;;;;;;;3.72;2.33;;;;;;;5.46;85.26;101231.63;6225905;28;20045;-69
2022/04/12 06:22:53;;;;;;;7.35;2.60;;;;;;;5.51;85.05;101241.06;6225911;28;20472;-69
2022/04/12 06:25:55;;;;;;;6.28;2.40;;;;;;;5.53;84.66;101239.25;6226235;28;20053;-68
2022/04/12 06:28:57;;;;;;;4.78;2.33;;;;;;;5.66;83.83;101245.03;6226233;28;20057;-69
2022/04/12 06:32:00;;;;;;;3.78;1.92;;;;;;;5.79;84.38;101261.22;6225459;28;20056;-68
2022/04/12 06:35:02;;;;;;;4.78;2.28;;;;;;;5.96;81.85;101248.63;6226174;28;20394;-68
2022/04/12 06:38:04;;;;;;;4.15;2.58;;;;;;;5.96;82.95;101255.63;6225797;28;20050;-69
2022/04/12 06:41:05;;;;;;;5.22;2.10;;;;;;;6.02;83.93;101251.06;6224420;28;20054;-68
2022/04/12 06:44:08;;;;;;;4.38;2.25;;;;;;;6.09;83.58;101242.19;6225492;28;20053;-70
2022/04/12 06:47:10;;;;;;;3.45;2.58;;;;;;;6.17;82.48;101254.16;6225857;28;20050;-69
2022/04/12 06:50:12;;;;;;;11.75;2.90;;;;;;;6.21;81.90;101261.03;6225044;28;20053;-69
2022/04/12 06:53:13;;;;;;;8.48;3.00;;;;;;;6.22;82.55;101265.34;6225352;28;20060;-70
2022/04/12 06:56:14;;;;;;;2.85;1.80;;;;;;;6.31;81.92;101271.19;6225504;28;20464;-69
2022/04/12 06:59:17;;;;;;;5.70;2.72;;;;;;;6.27;80.99;101273.94;6225199;28;20057;-69
2022/04/12 07:02:19;;;;;;;3.72;1.95;;;;;;;6.27;81.36;101266.09;6224435;28;20061;-69
2022/04/12 07:05:20;;;;;;;3.35;2.25;;;;;;;6.34;82.49;101275.47;6225250;28;20061;-69
2022/04/12 07:08:22;;;;;;;4.72;2.28;;;;;;;6.34;82.28;101260.66;6225342;28;20042;-70
2022/04/12 07:11:23;;;;;;;5.35;2.50;;;;;;;6.34;83.41;101259.78;6223595;28;20041;-69
2022/04/12 07:14:27;;;;;;;6.40;2.83;;;;;;;6.40;82.40;101266.59;6225070;28;20054;-68
2022/04/12 07:17:29;;;;;;;4.32;2.28;;;;;;;6.47;82.95;101258.56;6224991;28;20108;-68
2022/04/12 07:20:30;;;;;;;3.85;2.38;;;;;;;6.60;83.19;101259.06;6224266;28;20088;-67
2022/04/12 07:23:35;;;;;;;4.60;2.10;;;;;;;6.82;80.80;101249.72;6224975;28;20045;-69
2022/04/12 07:26:37;;;;;;;4.25;2.10;;;;;;;6.90;80.71;101252.06;6224927;28;20054;-69
2022/04/12 07:29:40;;;;;;;4.78;2.30;;;;;;;7.02;80.78;101256.09;6224566;28;20065;-68
2022/04/12 07:32:41;;;;;;;3.92;2.08;;;;;;;7.11;79.55;101256.66;6224098;28;20485;-68
2022/04/12 07:35:42;;;;;;;4.97;2.42;;;;;;;7.25;78.95;101260.59;6224886;28;20056;-69
2022/04/12 07:38:44;;;;;;;6.43;2.47;;;;;;;7.24;79.82;101275.44;6222310;28;20489;-69
2022/04/12 07:41:45;;;;;;;4.63;2.28;;;;;;;7.35;80.88;101269.84;6219299;28;20045;-68
2022/04/12 07:44:48;;;;;;;7.15;2.22;;;;;;;7.49;79.36;101261.56;6223973;28;20533;-69
2022/04/12 07:47:49;;;;;;;5.00;2.75;;;;;;;7.62;77.67;101257.66;6224272;28;20054;-68
2022/04/12 07:50:51;;;;;;;3.80;2.47;;;;;;;7.77;76.03;101251.09;6223585;28;20053;-69
2022/04/12 07:53:52;;;;;;;9.10;3.55;;;;;;;7.93;76.51;101254.88;6224376;28;20049;-69
2022/04/12 07:56:54;;;;;;;7.88;2.40;;;;;;;8.04;76.77;101252.75;6224045;28;20050;-69
2022/04/12 07:59:57;;;;;;;5.05;1.92;;;;;;;8.24;74.77;101245.97;6223699;28;20053;-69
2022/04/12 08:02:59;;;;;;;4.75;2.22;;;;;;;8.58;73.13;101245.59;6223749;28;20437;-69
2022/04/12 08:06:00;;;;;;;5.38;2.42;;;;;;;8.58;73.38;101251.72;6223868;28;20065;-69
2022/04/12 08:09:02;;;;;;;9.68;2.38;;;;;;;8.62;73.56;101249.81;6223992;28;20053;-68
2022/04/12 08:12:04;;;;;;;2.72;1.88;;;;;;;8.74;73.72;101251.16;6222986;28;20053;-69
2022/04/12 08:15:08;;;;;;;7.18;2.80;;;;;;;9.00;71.03;101252.78;6223881;28;20056;-68
2022/04/12 08:18:09;;;;;;;5.15;2.47;;;;;;;9.06;70.27;101266.50;6223501;28;20062;-69
2022/04/12 08:21:11;;;;;;;3.60;1.92;;;;;;;9.16;71.23;101264.38;6223069;28;20053;-69
2022/04/12 08:24:12;;;;;;;5.88;2.20;;;;;;;9.40;69.68;101254.66;6222621;28;20421;-69
2022/04/12 08:27:14;;;;;;;5.13;2.45;;;;;;;9.48;68.13;101256.97;6223505;28;20046;-69
2022/04/12 08:30:17;;;;;;;7.65;2.80;;;;;;;9.65;68.26;101265.03;6222186;28;20068;-69
2022/04/12 08:33:18;;;;;;;7.68;2.70;;;;;;;9.76;68.94;101265.41;6223143;28;20102;-69
2022/04/12 08:36:22;;;;;;;6.75;2.33;;;;;;;9.89;69.58;101258.75;6223391;28;20045;-69
2022/04/12 08:39:23;;;;;;;3.83;2.05;;;;;;;10.23;67.61;101249.44;6222852;28;20188;-69
2022/04/12 08:42:25;;;;;;;4.13;2.05;;;;;;;10.37;66.24;101246.22;6222459;28;20402;-68
2022/04/12 08:45:27;;;;;;;4.50;1.90;;;;;;;10.67;64.04;101246.59;6223034;28;20050;-69
2022/04/12 08:48:30;;;;;;;7.63;2.92;;;;;;;10.74;66.83;101232.25;6223076;28;20065;-68
2022/04/12 08:51:32;;;;;;;6.78;2.17;;;;;;;10.88;65.23;101226.38;6222186;28;20053;-69
2022/04/12 08:54:33;;;;;;;4.13;2.00;;;;;;;10.96;63.75;101233.91;6223011;28;20053;-69
2022/04/12 08:57:35;;;;;;;7.63;2.33;;;;;;;11.09;61.03;101222.72;6222852;28;20053;-68
2022/04/12 09:00:38;;;;;;;3.85;2.03;;;;;;;11.05;63.47;101218.53;6222207;28;20046;-69
2022/04/12 09:03:39;;;;;;;7.65;2.75;;;;;;;11.01;62.71;101222.22;6222819;28;20066;-69
2022/04/12 09:06:50;;;;;;;4.93;1.73;;;;;;;11.25;64.07;101224.59;6222881;28;20077;-69
2022/04/12 09:09:52;;;;;;;6.40;2.22;;;;;;;11.39;60.93;101227.41;6222305;28;20057;-69
2022/04/12 09:12:54;;;;;;;4.05;1.95;;;;;;;11.59;60.78;101215.91;6221950;28;20216;-68
2022/04/12 09:15:57;;;;;;;2.88;1.83;;;;;;;11.85;60.59;101222.50;6222639;28;20057;-69
2022/04/12 09:18:58;;;;;;;4.90;2.00;;;;;;;12.00;60.21;101218.25;6222226;28;20134;-69
2022/04/12 09:21:59;;;;;;;2.22;1.50;;;;;;;12.02;60.40;101208.50;6220936;28;20065;-68
2022/04/12 09:25:03;;;;;;;2.95;1.77;;;;;;;12.02;60.54;101203.22;6222026;28;20049;-69
2022/04/12 09:28:07;;;;;;;3.88;2.30;;;;;;;11.98;58.36;101196.41;6221976;28;20045;-68
2022/04/12 09:31:15;;;;;;;3.47;2.10;;;;;;;12.03;60.01;101200.50;6220490;28;20042;-67
2022/04/12 09:34:16;;;;;;;5.32;2.08;;;;;;;12.36;57.24;101192.63;6222031;28;20057;-69
2022/04/12 09:37:25;;;;;;;10.98;2.40;;;;;;;12.41;57.37;101185.31;6222012;28;20054;-69
2022/04/12 09:40:26;;;;;;;2.83;1.48;;;;;;;12.31;59.18;101183.22;6213988;28;20050;-68
2022/04/12 09:43:30;;;;;;;4.38;2.40;;;;;;;12.29;59.91;101185.09;6222141;28;20050;-69
2022/04/12 09:46:33;;;;;;;2.75;1.80;;;;;;;12.27;58.90;101185.19;6222058;28;20045;-69
2022/04/12 09:49:43;;;;;;;8.70;2.67;;;;;;;12.25;58.56;101178.28;6221741;28;20054;-69
2022/04/12 09:52:53;;;;;;;5.18;2.45;;;;;;;12.59;56.90;101177.34;6221652;28;20046;-69
2022/04/12 09:55:54;;;;;;;8.90;2.13;;;;;;;12.69;58.12;101174.09;6221695;28;20526;-69
2022/04/12 09:58:58;;;;;;;2.95;2.00;;;;;;;12.95;56.85;101161.25;6222153;28;20061;-73
2022/04/12 10:02:01;;;;;;;4.95;2.47;;;;;;;13.20;54.66;101161.53;6221054;28;20049;-69
2022/04/12 10:05:04;;;;;;;4.47;1.95;;;;;;;13.16;56.16;101167.91;6222110;28;20050;-69
2022/04/12 10:08:10;;;;;;;4.47;2.30;;;;;;;13.19;55.26;101164.28;6221798;28;20045;-69
2022/04/12 10:11:13;;;;;;;3.78;1.92;;;;;;;13.41;54.39;101151.56;6220880;28;20053;-68
2022/04/12 10:14:15;;;;;;;6.78;2.35;;;;;;;13.59;53.98;101144.34;6221006;28;20052;-69
2022/04/12 10:17:19;;;;;;;5.57;2.55;;;;;;;13.55;54.62;101160.47;6212015;28;20494;-69
2022/04/12 10:20:21;;;;;;;6.45;2.70;;;;;;;13.60;55.56;101153.09;6220889;28;20049;-69
2022/04/12 10:23:25;;;;;;;7.20;2.42;;;;;;;13.76;55.11;101148.59;6221299;28;20049;-68
2022/04/12 10:26:28;;;;;;;5.00;2.45;;;;;;;14.03;52.85;101143.44;6221793;28;20050;-74
2022/04/12 10:29:29;;;;;;;6.65;2.80;;;;;;;14.33;50.07;101148.63;6221448;28;20061;-73
2022/04/12 10:32:32;;;;;;;3.70;2.15;;;;;;;14.45;50.12;101141.72;6220783;28;20045;-68
2022/04/12 10:35:58;;;;;;;5.07;2.50;;;;;;;14.57;49.87;101148.88;6221628;28;20061;-67
2022/04/12 10:39:00;;;;;;;4.85;2.22;;;;;;;14.54;50.27;101133.22;6221510;28;20132;-69
2022/04/12 10:42:08;;;;;;;5.03;2.75;;;;;;;14.65;48.87;101137.81;6220347;28;20402;-69
2022/04/12 10:45:11;;;;;;;4.80;2.28;;;;;;;14.73;49.71;101132.06;6221586;28;20081;-68
2022/04/12 10:48:19;;;;;;;7.72;2.65;;;;;;;14.92;47.20;101116.66;6223646;28;20050;-68
2022/04/12 10:51:37;;;;;;;7.43;2.55;;;;;;;15.02;47.31;101123.03;6225207;28;20053;-67
2022/04/12 10:54:39;;;;;;;4.80;2.47;;;;;;;15.04;48.32;101125.63;6225640;28;20057;-69
2022/04/12 10:57:41;;;;;;;6.15;2.80;;;;;;;15.18;45.03;101110.50;6224689;28;20061;-68
2022/04/12 11:00:43;;;;;;;12.95;2.92;;;;;;;15.38;45.47;101100.38;6224672;28;20049;-69
2022/04/12 11:04:04;;;;;;;6.43;2.65;;;;;;;15.56;46.58;101115.00;6225678;28;20050;-69
2022/04/12 11:07:07;;;;;;;7.70;2.83;;;;;;;15.69;46.07;101115.91;6225346;28;20053;-69
2022/04/12 11:10:29;;;;;;;8.02;3.28;;;;;;;15.87;44.77;101115.59;6225032;28;20050;-69
2022/04/12 11:13:33;;;;;;;4.30;2.38;;;;;;;15.88;45.78;101115.47;6225108;28;20448;-68
2022/04/12 11:16:49;;;;;;;10.57;2.92;;;;;;;15.94;46.37;101114.19;6225133;28;20457;-69
2022/04/12 11:19:54;;;;;;;6.90;2.92;;;;;;;16.10;44.63;101113.97;6224781;28;20057;-69
2022/04/12 11:22:57;;;;;;;6.95;3.08;;;;;;;16.12;44.94;101123.50;6224118;28;20054;-69
2022/04/12 11:26:38;;;;;;;6.63;2.58;;;;;;;16.53;44.77;101121.50;6223592;28;20069;-69
2022/04/12 11:29:41;;;;;;;10.00;3.22;;;;;;;16.89;42.51;101107.38;6218810;28;20053;-67
2022/04/12 11:32:42;;;;;;;4.88;2.72;;;;;;;16.83;43.58;101098.06;6224135;28;20045;-69
2022/04/12 11:35:45;;;;;;;4.25;2.33;;;;;;;16.95;43.62;101097.16;6224539;28;20494;-68
2022/04/12 11:38:47;;;;;;;6.90;2.97;;;;;;;17.36;41.58;101090.53;6223838;28;20057;-69
2022/04/12 11:41:50;;;;;;;8.55;3.22;;;;;;;17.89;40.81;101090.03;6220671;28;20042;-69
2022/04/12 11:44:52;;;;;;;7.85;3.00;;;;;;;17.83;41.79;101085.19;6222999;28;20046;-67
2022/04/12 11:47:53;;;;;;;6.00;3.00;;;;;;;18.23;40.51;101088.19;6223890;28;20627;-67
2022/04/12 11:50:58;;;;;;;8.00;3.33;;;;;;;18.33;41.11;101086.50;6223636;28;20046;-66
2022/04/12 11:53:59;;;;;;;5.28;2.35;;;;;;;18.72;40.23;101086.94;6224585;28;20050;-67
2022/04/12 11:57:03;;;;;;;8.63;3.47;;;;;;;18.75;41.32;101076.84;6224079;28;20485;-67
2022/04/12 12:00:07;;;;;;;9.25;3.55;;;;;;;18.96;37.48;101078.72;6222759;28;20046;-67
2022/04/12 12:03:16;;;;;;;5.70;3.20;;;;;;;18.89;40.07;101073.03;6223612;28;20140;-66
2022/04/12 12:06:19;;;;;;;8.05;3.20;;;;;;;19.08;39.53;101063.53;6224140;28;20089;-67
2022/04/12 12:09:21;;;;;;;5.35;2.60;;;;;;;19.41;37.90;101062.50;6223921;28;20053;-75
2022/04/12 12:12:32;;;;;;;4.72;3.03;;;;;;;19.75;37.89;101060.44;6223299;28;20049;-67
2022/04/12 12:15:34;;;;;;;5.78;3.05;;;;;;;19.82;35.96;101050.94;6223839;28;20064;-69
2022/04/12 12:18:40;;;;;;;3.95;2.17;;;;;;;19.59;38.18;101054.72;6223592;28;20417;-69
2022/04/12 12:21:45;;;;;;;7.60;3.03;;;;;;;19.69;37.45;101052.97;6223024;28;20042;-66
2022/04/12 12:24:51;;;;;;;7.25;3.47;;;;;;;20.00;35.68;101052.00;6223795;28;20053;-69
2022/04/12 12:27:53;;;;;;;5.38;2.78;;;;;;;20.05;36.12;101048.91;6223381;28;20501;-70
2022/04/12 12:30:59;;;;;;;7.40;2.63;;;;;;;20.28;37.14;101047.72;6222825;28;20050;-69
2022/04/12 12:34:01;;;;;;;8.13;3.78;;;;;;;20.25;36.30;101050.63;6223342;28;20053;-67
2022/04/12 12:37:11;;;;;;;5.63;3.10;;;;;;;20.44;37.08;101049.00;6223183;28;20057;-67
2022/04/12 12:40:21;;;;;;;7.53;3.53;;;;;;;20.42;35.59;101050.97;6222795;28;20524;-67
2022/04/12 12:43:22;;;;;;;5.63;2.72;;;;;;;21.01;36.03;101050.88;6222023;28;20053;-68
2022/04/12 12:46:27;;;;;;;6.97;3.25;;;;;;;21.03;34.04;101048.91;6221948;28;20053;-66
2022/04/12 12:49:34;;;;;;;6.63;2.67;;;;;;;20.81;34.38;101049.22;6220980;28;20042;-68
2022/04/12 12:52:37;;;;;;;5.15;2.58;;;;;;;20.85;34.56;101045.28;6222312;28;20053;-67
2022/04/12 12:55:41;;;;;;;4.40;2.33;;;;;;;21.06;34.42;101047.78;6222653;28;20421;-68
2022/04/12 12:58:42;;;;;;;3.72;2.05;;;;;;;20.88;32.93;101047.66;6219461;28;20052;-68
2022/04/12 13:01:45;;;;;;;4.38;2.42;;;;;;;21.64;32.65;101030.78;6221769;28;20072;-67
2022/04/12 13:04:53;;;;;;;4.72;2.80;;;;;;;21.51;33.17;101041.81;6222719;28;20049;-67
2022/04/12 13:07:58;;;;;;;4.53;2.42;;;;;;;21.61;34.44;101031.06;6222454;28;20054;-68
2022/04/12 13:11:01;;;;;;;4.35;1.98;;;;;;;22.38;32.82;101035.22;6222090;28;20042;-67
2022/04/12 13:14:03;;;;;;;4.15;2.33;;;;;;;22.08;32.28;101039.06;6222469;28;20055;-68
2022/04/12 13:17:05;;;;;;;8.27;3.00;;;;;;;21.93;32.27;101028.81;6222595;28;20069;-66
2022/04/12 13:20:09;;;;;;;4.45;2.70;;;;;;;21.97;33.80;101038.22;6221320;28;20045;-67
2022/04/12 13:23:12;;;;;;;5.65;2.88;;;;;;;22.03;33.63;101020.75;6222108;28;20054;-68
2022/04/12 13:26:13;;;;;;;3.63;2.30;;;;;;;21.79;35.13;101019.44;6222329;28;20053;-67
2022/04/12 13:29:15;;;;;;;6.45;3.40;;;;;;;21.92;33.76;101016.44;6221787;28;20046;-67
2022/04/12 13:32:16;;;;;;;4.82;2.50;;;;;;;21.93;33.88;101009.25;6221492;28;20045;-68
2022/04/12 13:35:21;;;;;;;3.70;2.53;;;;;;;22.18;34.70;100995.19;6221851;28;20421;-67
2022/04/12 13:38:24;;;;;;;5.72;3.10;;;;;;;22.73;32.78;100994.19;6210870;28;20049;-67
2022/04/12 13:41:26;;;;;;;5.18;2.75;;;;;;;22.83;33.63;101000.31;6220467;28;20046;-69
2022/04/12 13:44:27;;;;;;;6.07;3.67;;;;;;;22.47;32.84;100994.97;6221977;28;20505;-67
2022/04/12 13:47:28;;;;;;;4.75;2.88;;;;;;;22.39;33.05;100994.03;6221584;28;20053;-68
2022/04/12 13:50:30;;;;;;;5.28;2.75;;;;;;;22.16;33.55;100993.63;6220255;28;20425;-67
2022/04/12 13:53:32;;;;;;;6.28;2.85;;;;;;;21.99;34.36;100987.25;6217798;28;20042;-67
2022/04/12 13:56:34;;;;;;;5.38;3.55;;;;;;;21.76;34.82;100984.97;6220047;28;20057;-68
2022/04/12 13:59:36;;;;;;;5.07;3.10;;;;;;;22.64;33.89;100982.56;6219252;28;20049;-68
2022/04/12 14:02:37;;;;;;;8.00;4.07;;;;;;;22.76;32.21;100972.47;6219077;28;20046;-69
2022/04/12 14:05:39;;;;;;;7.22;3.83;;;;;;;22.64;33.89;100968.34;6221102;28;20061;-68
2022/04/12 14:08:42;;;;;;;11.93;4.00;;;;;;;23.29;32.04;100958.91;6221538;28;20061;-68
2022/04/12 14:11:44;;;;;;;8.55;4.05;;;;;;;23.14;32.16;100959.69;6217756;28;20516;-68
2022/04/12 14:14:45;;;;;;;6.93;3.83;;;;;;;22.77;32.09;100958.91;6221530;28;20128;-68
2022/04/12 14:17:47;;;;;;;5.22;3.35;;;;;;;23.11;32.12;100965.34;6202930;28;20054;-68